createdAt,value
2023-04-08T00:02:25.395Z,46.88
2023-04-08T00:05:28.367Z,46.81
2023-04-08T00:08:31.681Z,46.92
2023-04-08T00:11:35.933Z,46.81
2023-04-08T00:14:38.832Z,46.72
2023-04-08T00:17:43.329Z,46.94
2023-04-08T00:20:46.488Z,46.70
2023-04-08T00:23:49.206Z,46.80
2023-04-08T00:26:53.316Z,46.72
2023-04-08T00:29:56.386Z,46.61
2023-04-08T00:32:59.274Z,46.52
2023-04-08T00:36:02.661Z,46.65
2023-04-08T00:39:06.863Z,46.73
2023-04-08T00:42:11.790Z,46.65
2023-04-08T00:45:14.719Z,46.60
2023-04-08T00:48:17.527Z,46.71
2023-04-08T00:51:20.462Z,46.73
2023-04-08T00:54:23.246Z,46.66
2023-04-08T00:57:27.529Z,46.68
2023-04-08T01:00:31.814Z,46.83
2023-04-08T01:03:40.585Z,46.62
2023-04-08T01:06:50.493Z,46.65
2023-04-08T01:09:56.473Z,46.60
2023-04-08T01:13:05.792Z,46.62
2023-04-08T01:16:12.130Z,46.47
2023-04-08T01:19:28.947Z,46.55
2023-04-08T01:22:40.561Z,46.51
2023-04-08T01:25:47.440Z,46.65
2023-04-08T01:28:52.118Z,46.53
2023-04-08T01:31:56.303Z,46.60
2023-04-08T01:35:00.300Z,46.55
2023-04-08T01:38:07.879Z,46.49
2023-04-08T01:41:12.645Z,46.58
2023-04-08T01:44:17.545Z,46.68
2023-04-08T01:47:20.725Z,46.51
2023-04-08T01:50:24.860Z,46.59
2023-04-08T01:53:27.713Z,46.57
2023-04-08T01:56:37.551Z,46.59
2023-04-08T01:59:42.121Z,46.35
2023-04-08T02:02:47.316Z,46.39
2023-04-08T02:05:50.767Z,46.55
2023-04-08T02:08:54.384Z,46.56
2023-04-08T02:11:58.972Z,46.42
2023-04-08T02:15:02.144Z,46.36
2023-04-08T02:18:12.518Z,46.37
2023-04-08T02:21:16.839Z,46.35
2023-04-08T02:24:21.167Z,46.35
2023-04-08T02:27:27.969Z,46.39
2023-04-08T02:30:32.371Z,46.49
2023-04-08T02:33:37.062Z,46.39
2023-04-08T02:36:41.070Z,46.31
2023-04-08T02:39:43.891Z,46.36
2023-04-08T02:42:48.938Z,46.28
2023-04-08T02:45:51.744Z,46.32
2023-04-08T02:48:54.916Z,46.28
2023-04-08T02:51:57.700Z,46.39
2023-04-08T02:55:00.624Z,46.15
2023-04-08T02:58:04.757Z,46.22
2023-04-08T03:01:10.051Z,46.11
2023-04-08T03:04:12.977Z,46.35
2023-04-08T03:07:15.735Z,46.18
2023-04-08T03:10:18.543Z,46.28
2023-04-08T03:13:22.785Z,46.18
2023-04-08T03:16:25.754Z,46.24
2023-04-08T03:19:28.590Z,46.19
2023-04-08T03:22:31.378Z,46.20
2023-04-08T03:25:34.208Z,46.26
2023-04-08T03:28:38.460Z,46.13
2023-04-08T03:31:41.530Z,46.16
2023-04-08T03:34:44.298Z,46.27
2023-04-08T03:37:47.190Z,46.12
2023-04-08T03:40:49.942Z,46.06
2023-04-08T03:43:54.031Z,46.25
2023-04-08T03:46:56.854Z,46.08
2023-04-08T03:49:59.619Z,46.27
2023-04-08T03:53:02.397Z,46.19
2023-04-08T03:56:05.474Z,46.17
2023-04-08T03:59:09.637Z,46.21
2023-04-08T04:02:12.503Z,46.25
2023-04-08T04:05:15.423Z,46.19
2023-04-08T04:08:18.385Z,46.17
2023-04-08T04:11:21.364Z,46.25
2023-04-08T04:14:25.738Z,46.33
2023-04-08T04:17:28.534Z,46.27
2023-04-08T04:20:31.431Z,46.34
2023-04-08T04:23:34.460Z,46.46
2023-04-08T04:26:37.233Z,46.17
2023-04-08T04:29:41.342Z,46.06
2023-04-08T04:32:44.273Z,46.10
2023-04-08T04:35:47.107Z,46.02
2023-04-08T04:38:50.921Z,46.20
2023-04-08T04:41:53.737Z,46.19
2023-04-08T04:44:58.856Z,45.98
2023-04-08T04:48:01.701Z,45.98
2023-04-08T04:51:04.639Z,46.01
2023-04-08T04:54:07.415Z,45.87
2023-04-08T04:57:11.032Z,46.05
2023-04-08T05:00:15.731Z,46.09
2023-04-08T05:03:18.672Z,45.95
2023-04-08T05:06:21.686Z,45.92
2023-04-08T05:09:24.428Z,45.96
2023-04-08T05:12:28.140Z,45.99
2023-04-08T05:15:33.548Z,46.11
2023-04-08T05:18:36.632Z,46.07
2023-04-08T05:21:39.401Z,45.88
2023-04-08T05:24:42.170Z,46.03
2023-04-08T05:27:44.917Z,45.98
2023-04-08T05:30:52.052Z,45.86
2023-04-08T05:33:54.985Z,45.91
2023-04-08T05:36:57.763Z,45.93
2023-04-08T05:40:00.602Z,45.83
2023-04-08T05:43:03.336Z,45.88
2023-04-08T05:46:11.598Z,45.93
2023-04-08T05:49:14.380Z,45.95
2023-04-08T05:52:17.525Z,46.05
2023-04-08T05:55:20.760Z,46.00
2023-04-08T05:58:23.491Z,46.04
2023-04-08T06:01:27.870Z,46.02
2023-04-08T06:04:30.741Z,46.04
2023-04-08T06:07:33.660Z,46.05
2023-04-08T06:10:36.439Z,46.03
2023-04-08T06:13:39.285Z,45.90
2023-04-08T06:16:43.562Z,45.96
2023-04-08T06:19:46.396Z,45.90
2023-04-08T06:22:49.176Z,45.92
2023-04-08T06:25:52.220Z,45.95
2023-04-08T06:28:55.001Z,45.94
2023-04-08T06:31:59.147Z,46.07
2023-04-08T06:35:01.950Z,46.07
2023-04-08T06:38:04.753Z,46.05
2023-04-08T06:41:08.142Z,45.92
2023-04-08T06:44:11.112Z,45.94
2023-04-08T06:47:16.498Z,45.83
2023-04-08T06:50:19.474Z,45.82
2023-04-08T06:53:23.748Z,45.92
2023-04-08T06:56:26.644Z,45.83
2023-04-08T06:59:30.443Z,45.75
2023-04-08T07:02:34.641Z,45.74
2023-04-08T07:05:38.585Z,45.90
2023-04-08T07:08:41.548Z,45.84
2023-04-08T07:11:44.297Z,45.71
2023-04-08T07:14:47.087Z,45.73
2023-04-08T07:17:51.685Z,45.66
2023-04-08T07:20:55.043Z,45.85
2023-04-08T07:23:57.821Z,45.67
2023-04-08T07:27:00.610Z,45.67
2023-04-08T07:30:03.435Z,45.65
2023-04-08T07:33:07.609Z,45.67
2023-04-08T07:36:11.476Z,45.67
2023-04-08T07:39:14.227Z,45.69
2023-04-08T07:42:16.971Z,45.67
2023-04-08T07:45:19.811Z,45.59
2023-04-08T07:48:24.004Z,45.71
2023-04-08T07:51:27.706Z,45.73
2023-04-08T07:54:34.188Z,45.59
2023-04-08T07:57:36.997Z,45.67
2023-04-08T08:00:40.836Z,45.63
2023-04-08T08:03:45.853Z,45.64
2023-04-08T08:06:48.857Z,45.63
2023-04-08T08:09:51.639Z,45.59
2023-04-08T08:12:54.435Z,45.60
2023-04-08T08:15:57.299Z,45.61
2023-04-08T08:19:01.723Z,45.60
2023-04-08T08:22:04.521Z,45.58
2023-04-08T08:25:09.926Z,45.56
2023-04-08T08:28:12.833Z,45.81
2023-04-08T08:31:15.739Z,45.76
2023-04-08T08:34:20.059Z,45.89
2023-04-08T08:37:22.891Z,45.55
2023-04-08T08:40:25.762Z,45.58
2023-04-08T08:43:30.088Z,45.39
2023-04-08T08:46:33.142Z,45.35
2023-04-08T08:49:37.424Z,45.36
2023-04-08T08:52:40.208Z,45.53
2023-04-08T08:58:49.211Z,45.40
2023-04-08T09:01:52.094Z,45.32
2023-04-08T09:05:01.195Z,45.24
2023-04-08T09:08:04.420Z,45.30
2023-04-08T09:11:14.998Z,45.48
2023-04-08T09:14:22.546Z,45.79
2023-04-08T09:17:36.220Z,46.18
2023-04-08T09:20:53.434Z,45.90
2023-04-08T09:24:06.565Z,46.18
2023-04-08T09:27:12.381Z,46.12
2023-04-08T09:30:15.535Z,46.01
2023-04-08T09:33:18.282Z,46.20
2023-04-08T09:36:22.518Z,47.05
2023-04-08T09:39:25.500Z,48.18
2023-04-08T09:42:28.606Z,48.75
2023-04-08T09:45:34.844Z,49.27
2023-04-08T09:48:42.759Z,49.62
2023-04-08T09:51:57.602Z,49.72
2023-04-08T09:55:03.848Z,49.97
2023-04-08T09:58:12.634Z,49.50
2023-04-08T10:01:16.381Z,49.60
2023-04-08T10:04:22.566Z,50.02
2023-04-08T10:07:27.259Z,50.84
2023-04-08T10:10:30.251Z,51.42
2023-04-08T10:13:34.829Z,52.04
2023-04-08T10:16:38.870Z,52.70
2023-04-08T10:19:42.073Z,53.44
2023-04-08T10:22:49.977Z,53.51
2023-04-08T10:25:52.778Z,53.30
2023-04-08T10:28:55.489Z,52.61
2023-04-08T10:31:58.487Z,52.21
2023-04-08T10:35:01.610Z,51.77
2023-04-08T10:38:05.811Z,51.58
2023-04-08T10:41:08.666Z,51.18
2023-04-08T10:44:18.038Z,51.14
2023-04-08T10:47:28.411Z,50.84
2023-04-08T10:50:32.323Z,50.77
2023-04-08T10:53:37.833Z,50.50
2023-04-08T10:56:46.483Z,50.46
2023-04-08T10:59:49.275Z,50.34
2023-04-08T11:02:52.150Z,50.38
2023-04-08T11:05:58.939Z,50.08
2023-04-08T11:09:04.201Z,50.17
2023-04-08T11:12:07.089Z,49.96
2023-04-08T11:15:11.116Z,50.00
2023-04-08T11:18:14.642Z,49.70
2023-04-08T11:21:18.382Z,49.61
2023-04-08T11:24:23.512Z,49.50
2023-04-08T11:27:27.083Z,49.60
2023-04-08T11:30:31.160Z,49.55
2023-04-08T11:33:35.058Z,49.42
2023-04-08T11:36:37.911Z,49.34
2023-04-08T11:39:44.078Z,49.52
2023-04-08T11:42:47.226Z,49.76
2023-04-08T11:45:50.316Z,49.79
2023-04-08T11:49:04.329Z,49.73
2023-04-08T11:52:07.524Z,49.73
2023-04-08T11:55:12.564Z,49.51
2023-04-08T11:58:15.860Z,49.40
2023-04-08T12:01:19.092Z,49.55
2023-04-08T12:04:22.040Z,49.44
2023-04-08T12:07:24.877Z,49.37
2023-04-08T12:10:29.126Z,49.35
2023-04-08T12:13:32.415Z,49.25
2023-04-08T12:16:35.390Z,49.31
2023-04-08T12:19:38.704Z,49.32
2023-04-08T12:22:41.703Z,49.23
2023-04-08T12:25:45.828Z,49.04
2023-04-08T12:28:48.558Z,49.06
2023-04-08T12:31:51.659Z,49.03
2023-04-08T12:34:54.598Z,49.04
2023-04-08T12:37:57.375Z,48.94
2023-04-08T12:41:01.547Z,48.91
2023-04-08T12:44:04.647Z,48.76
2023-04-08T12:47:07.471Z,48.88
2023-04-08T12:50:11.276Z,48.80
2023-04-08T12:53:14.099Z,48.73
2023-04-08T12:56:18.404Z,48.72
2023-04-08T12:59:21.173Z,48.75
2023-04-08T13:02:25.556Z,48.61
2023-04-08T13:05:41.906Z,48.65
2023-04-08T13:08:45.726Z,48.54
2023-04-08T13:11:50.316Z,48.47
2023-04-08T13:14:53.116Z,48.57
2023-04-08T13:17:56.184Z,48.58
2023-04-08T13:20:59.153Z,48.47
2023-04-08T13:24:02.238Z,48.62
2023-04-08T13:27:06.566Z,48.54
2023-04-08T13:30:10.587Z,48.69
2023-04-08T13:33:13.361Z,48.53
2023-04-08T13:36:16.124Z,48.43
2023-04-08T13:39:18.993Z,48.35
2023-04-08T13:42:23.461Z,48.32
2023-04-08T13:45:26.568Z,48.30
2023-04-08T13:48:29.307Z,48.37
2023-04-08T13:51:32.052Z,48.34
2023-04-08T13:54:34.836Z,48.32
2023-04-08T13:57:39.034Z,48.29
2023-04-08T14:00:41.838Z,48.21
2023-04-08T14:03:44.603Z,48.19
2023-04-08T14:06:47.402Z,47.96
2023-04-08T14:09:50.297Z,48.18
2023-04-08T14:12:54.455Z,47.99
2023-04-08T14:15:58.420Z,47.91
2023-04-08T14:19:01.296Z,47.90
2023-04-08T14:22:04.038Z,47.95
2023-04-08T14:25:07.138Z,47.92
2023-04-08T14:28:11.361Z,48.11
2023-04-08T14:31:14.170Z,48.24
2023-04-08T14:34:16.888Z,48.21
2023-04-08T14:37:19.624Z,48.08
2023-04-08T14:40:22.428Z,48.23
2023-04-08T14:43:26.676Z,48.22
2023-04-08T14:46:29.596Z,48.14
2023-04-08T14:49:32.347Z,48.27
2023-04-08T14:52:35.402Z,48.34
2023-04-08T14:55:38.532Z,48.34
2023-04-08T14:58:42.682Z,48.23
2023-04-08T15:01:45.888Z,48.22
2023-04-08T15:04:48.805Z,48.24
2023-04-08T15:07:51.711Z,48.21
2023-04-08T15:10:54.561Z,48.28
2023-04-08T15:13:58.735Z,48.28
2023-04-08T15:17:01.556Z,48.34
2023-04-08T15:20:04.681Z,48.31
2023-04-08T15:23:07.887Z,48.26
2023-04-08T15:26:11.345Z,48.23
2023-04-08T15:29:15.582Z,48.29
2023-04-08T15:32:18.493Z,48.28
2023-04-08T15:35:21.246Z,48.30
2023-04-08T15:38:24.083Z,48.27
2023-04-08T15:41:27.129Z,48.26
2023-04-08T15:44:33.466Z,48.26
2023-04-08T15:47:36.754Z,48.28
2023-04-08T15:50:39.835Z,48.29
2023-04-08T15:53:42.903Z,48.40
2023-04-08T15:56:46.616Z,48.24
2023-04-08T15:59:50.757Z,48.19
2023-04-08T16:02:53.687Z,48.34
2023-04-08T16:05:56.607Z,48.37
2023-04-08T16:08:59.316Z,48.36
2023-04-08T16:12:02.621Z,48.30
2023-04-08T16:15:08.411Z,48.22
2023-04-08T16:18:11.524Z,48.29
2023-04-08T16:21:14.514Z,48.11
2023-04-08T16:24:20.208Z,48.38
2023-04-08T16:27:23.316Z,48.37
2023-04-08T16:30:27.467Z,48.39
2023-04-08T16:33:30.857Z,48.15
2023-04-08T16:36:33.585Z,47.98
2023-04-08T16:39:36.527Z,48.04
2023-04-08T16:42:39.272Z,47.90
2023-04-08T16:45:43.458Z,47.83
2023-04-08T16:48:46.458Z,47.83
2023-04-08T16:51:49.466Z,47.97
2023-04-08T16:54:52.383Z,47.95
2023-04-08T16:57:55.419Z,47.98
2023-04-08T17:00:59.550Z,47.93
2023-04-08T17:04:02.447Z,47.88
2023-04-08T17:07:05.227Z,47.89
2023-04-08T17:10:09.098Z,47.92
2023-04-08T17:13:14.687Z,47.92
2023-04-08T17:16:19.508Z,47.81
2023-04-08T17:19:22.282Z,48.03
2023-04-08T17:22:25.077Z,47.88
2023-04-08T17:25:27.820Z,47.95
2023-04-08T17:28:30.583Z,47.89
2023-04-08T17:31:34.749Z,48.09
2023-04-08T17:34:37.999Z,48.32
2023-04-08T17:37:40.945Z,48.09
2023-04-08T17:40:43.738Z,48.21
2023-04-08T17:43:46.596Z,48.28
2023-04-08T17:46:50.732Z,48.25
2023-04-08T17:49:56.054Z,48.41
2023-04-08T17:52:58.841Z,48.17
2023-04-08T17:56:01.873Z,48.22
2023-04-08T17:59:04.664Z,48.18
2023-04-08T18:02:08.921Z,48.09
2023-04-08T18:05:12.597Z,48.18
2023-04-08T18:08:15.401Z,48.25
2023-04-08T18:11:18.262Z,48.25
2023-04-08T18:14:21.045Z,48.28
2023-04-08T18:17:25.240Z,48.19
2023-04-08T18:20:28.714Z,48.43
2023-04-08T18:23:31.512Z,48.31
2023-04-08T18:26:34.275Z,48.30
2023-04-08T18:29:37.068Z,48.28
2023-04-08T18:32:41.203Z,48.30
2023-04-08T18:35:44.293Z,48.43
2023-04-08T18:38:48.603Z,48.28
2023-04-08T18:41:51.341Z,48.34
2023-04-08T18:44:54.060Z,48.26
2023-04-08T18:47:58.615Z,48.32
2023-04-08T18:51:02.029Z,48.21
2023-04-08T18:54:04.957Z,48.28
2023-04-08T18:57:07.906Z,47.98
2023-04-08T19:00:11.380Z,48.19
2023-04-08T19:03:15.744Z,48.15
2023-04-08T19:06:22.378Z,48.27
2023-04-08T19:09:25.136Z,48.24
2023-04-08T19:12:29.485Z,48.23
2023-04-08T19:15:32.228Z,48.11
2023-04-08T19:18:36.400Z,48.16
2023-04-08T19:21:39.177Z,48.18
2023-04-08T19:24:41.983Z,48.00
2023-04-08T19:27:45.939Z,48.08
2023-04-08T19:30:50.558Z,48.07
2023-04-08T19:33:55.280Z,48.07
2023-04-08T19:36:58.118Z,47.97
2023-04-08T19:40:01.087Z,48.02
2023-04-08T19:43:03.858Z,47.85
2023-04-08T19:46:06.793Z,47.80
2023-04-08T19:49:10.973Z,48.07
2023-04-08T19:52:13.752Z,48.09
2023-04-08T19:55:16.918Z,48.00
2023-04-08T19:58:19.731Z,47.95
2023-04-08T20:01:22.589Z,47.92
2023-04-08T20:04:26.909Z,47.85
2023-04-08T20:07:29.792Z,47.92
2023-04-08T20:10:32.553Z,47.99
2023-04-08T20:13:35.289Z,48.04
2023-04-08T20:16:38.072Z,48.19
2023-04-08T20:19:42.235Z,47.90
2023-04-08T20:22:46.381Z,47.94
2023-04-08T20:25:49.367Z,47.92
2023-04-08T20:28:52.288Z,48.09
2023-04-08T20:31:55.482Z,48.22
2023-04-08T20:35:00.686Z,48.16
2023-04-08T20:38:03.457Z,47.88
2023-04-08T20:41:06.480Z,48.23
2023-04-08T20:44:10.535Z,48.08
2023-04-08T20:47:14.175Z,47.97
2023-04-08T20:50:18.407Z,47.87
2023-04-08T20:53:23.619Z,48.04
2023-04-08T20:56:27.533Z,47.94
2023-04-08T20:59:30.337Z,48.05
2023-04-08T21:02:33.679Z,47.91
2023-04-08T21:05:39.257Z,47.98
2023-04-08T21:08:42.035Z,47.95
2023-04-08T21:11:45.050Z,47.91
2023-04-08T21:14:47.852Z,47.93
2023-04-08T21:17:50.743Z,48.04
2023-04-08T21:20:55.059Z,48.27
2023-04-08T21:23:57.863Z,47.92
2023-04-08T21:27:01.309Z,47.93
2023-04-08T21:30:04.746Z,47.84
2023-04-08T21:33:07.901Z,47.90
2023-04-08T21:36:12.156Z,47.81
2023-04-08T21:39:17.505Z,48.04
2023-04-08T21:42:22.746Z,47.96
2023-04-08T21:45:25.933Z,47.86
2023-04-08T21:48:28.757Z,47.98
2023-04-08T21:51:32.929Z,47.90
2023-04-08T21:54:35.755Z,47.89
2023-04-08T21:57:39.287Z,47.75
2023-04-08T22:00:42.048Z,47.86
2023-04-08T22:03:44.913Z,47.81
2023-04-08T22:06:49.783Z,47.83
2023-04-08T22:09:54.480Z,47.69
2023-04-08T22:12:57.396Z,47.87
2023-04-08T22:16:00.154Z,47.89
2023-04-08T22:19:02.937Z,47.83
2023-04-08T22:22:07.094Z,47.85
2023-04-08T22:25:10.567Z,47.86
2023-04-08T22:28:13.376Z,47.95
2023-04-08T22:31:16.296Z,47.95
2023-04-08T22:34:19.185Z,47.88
2023-04-08T22:37:23.334Z,47.74
2023-04-08T22:40:26.158Z,47.91
2023-04-08T22:43:28.990Z,47.88
2023-04-08T22:46:32.038Z,47.79
2023-04-08T22:49:35.483Z,47.84
2023-04-08T22:52:39.737Z,47.86
2023-04-08T22:55:42.505Z,48.01
2023-04-08T22:58:45.376Z,47.95
2023-04-08T23:01:48.259Z,47.93
2023-04-08T23:04:54.686Z,47.97
2023-04-08T23:07:58.826Z,47.95
2023-04-08T23:11:01.637Z,47.91
2023-04-08T23:14:04.450Z,47.78
2023-04-08T23:17:07.212Z,47.69
2023-04-08T23:20:10.576Z,47.84
2023-04-08T23:23:14.640Z,47.85
2023-04-08T23:26:20.889Z,47.68
2023-04-08T23:29:23.712Z,47.93
2023-04-08T23:32:27.475Z,47.91
2023-04-08T23:35:30.584Z,47.87
2023-04-08T23:38:34.862Z,47.97
2023-04-08T23:41:37.624Z,47.90
2023-04-08T23:44:40.429Z,47.87
2023-04-08T23:47:43.248Z,47.86
2023-04-08T23:50:46.066Z,47.77
2023-04-08T23:53:51.742Z,47.71
2023-04-08T23:56:54.469Z,47.77
2023-04-08T23:59:58.605Z,47.81
